Uni-assent — 3FBD9 — position and weather

sailwx.info

Track history (hours):
 
Tides and Currents Weather Stations Pressure Air Temp Water Temp Dewpoint Dewpoint Depression Visibility Wind Speed Wind Dir Waves Ship Positions

Uni-assent

Last reported at 2018-Jun-21 19:15 UTC. Time now 2018-Jun-22 07:44 UTC.
Position N 43°09' E 027°58'.

Length 165 m; draft 7.3 m.

Type: Ship (hazmat cat D). MMSI: 357157000.

Date/timePositionNaut miles runAvg speedWind from/ knotsBaromVisibWave heightAir tempDewpointWater temp
2018-Jun-21 19:15N 43°09' E 027°58'0 0.0
2018-Jun-21 19:00N 43°09' E 027°58'0 0.0
2018-Jun-20 20:42N 43°09' E 027°58'0 0.0
2018-Jun-20 20:30N 43°09' E 027°58'0 0.0
2018-Jun-20 20:00N 43°09' E 027°58'0 0.0
2018-Jun-20 19:27N 43°09' E 027°58'0 0.0
2018-Jun-20 19:00N 43°09' E 027°58'0 0.0
2018-Jun-20 18:30N 43°09' E 027°58'0 0.0
2018-Jun-20 18:00N 43°09' E 027°58'0 0.0
2018-Jun-20 17:30N 43°09' E 027°58'28 5.0
2018-Jun-20 11:52N 43°23' E 028°31'616.9
2018-Jun-20 11:30N 43°28' E 028°36'816.6
2018-Jun-20 11:00N 43°35' E 028°43'816.1
2018-Jun-20 10:30N 43°42' E 028°48'815.5
2018-Jun-20 10:01N 43°49' E 028°52'815.3
2018-Jun-20 09:30N 43°57' E 028°51'714.7
2018-Jun-20 09:01N 44°02' E 028°45'510.0
2018-Jun-20 08:31N 44°06' E 028°41'1 1.4
2018-Jun-20 08:00N 44°06' E 028°40'0 0.0
2018-Jun-20 07:30N 44°06' E 028°40'0 0.0
2018-Jun-20 07:00N 44°06' E 028°40'0 0.0
2018-Jun-20 06:30N 44°06' E 028°40'0 0.0
2018-Jun-20 06:00N 44°06' E 028°40'0 0.0
2018-Jun-20 05:30N 44°06' E 028°40'0 0.0
2018-Jun-20 05:00N 44°06' E 028°40'0 0.0
2018-Jun-20 04:30N 44°06' E 028°40'0 0.0
2018-Jun-20 04:00N 44°06' E 028°40'0 0.0
2018-Jun-20 03:30N 44°06' E 028°40'0 0.0
2018-Jun-20 03:00N 44°06' E 028°40'0 0.0
2018-Jun-20 02:30N 44°06' E 028°40'0 0.0
2018-Jun-20 02:00N 44°06' E 028°40'0 0.0
2018-Jun-20 01:30N 44°06' E 028°40'0 0.0
2018-Jun-20 01:00N 44°06' E 028°40'0 0.0
2018-Jun-20 00:30N 44°06' E 028°40'0 0.0
2018-Jun-20 00:00N 44°06' E 028°40'0 0.0
2018-Jun-19 23:30N 44°06' E 028°40'0 0.4
2018-Jun-19 23:01N 44°06' E 028°39'2 3.7
2018-Jun-19 22:31N 44°06' E 028°42'4 8.6
2018-Jun-19 22:01N 44°03' E 028°46'611.2
2018-Jun-19 21:31N 43°60' E 028°52'713.1
2018-Jun-19 21:01N 44°03' E 029°01'815.9
2018-Jun-19 20:30N 44°08' E 029°09'815.9
2018-Jun-19 20:00N 44°12' E 029°18'815.6
2018-Jun-19 19:30N 44°17' E 029°27'815.9
2018-Jun-19 19:00N 44°22' E 029°35'815.8
2018-Jun-19 18:30N 44°27' E 029°44'815.5
2018-Jun-19 18:00N 44°32' E 029°52'815.6
2018-Jun-19 17:30N 44°37' E 030°01'815.5
2018-Jun-19 17:00N 44°42' E 030°09'815.5
2018-Jun-19 16:30N 44°47' E 030°18'815.5
2018-Jun-19 16:00N 44°52' E 030°26'815.5
2018-Jun-19 15:30N 44°57' E 030°35'815.4
2018-Jun-19 15:00N 45°04' E 030°39'815.6
2018-Jun-19 14:30N 45°11' E 030°43'815.3
2018-Jun-19 14:00N 45°18' E 030°46'815.3
2018-Jun-19 13:30N 45°26' E 030°49'815.3
2018-Jun-19 13:00N 45°33' E 030°52'715.1
2018-Jun-19 12:30N 45°40' E 030°55'815.1
2018-Jun-19 11:59N 45°48' E 030°59'815.2
2018-Jun-19 11:30N 45°55' E 031°02'715.2
2018-Jun-19 11:00N 46°02' E 031°04'714.5
2018-Jun-19 10:30N 46°09' E 031°01'815.2
2018-Jun-19 10:00N 46°15' E 030°54'714.8
2018-Jun-19 09:30N 46°22' E 030°51'714.0
2018-Jun-19 09:00N 46°29' E 030°48'2 3.0
2018-Jun-19 08:24N 46°29' E 030°45'0 0.0
2018-Jun-19 08:00N 46°29' E 030°45'0 0.0
2018-Jun-19 07:31N 46°29' E 030°45'0 0.0
2018-Jun-19 06:52N 46°29' E 030°45'0 0.0
2018-Jun-19 06:31N 46°29' E 030°45'0 0.0
2018-Jun-19 06:01N 46°29' E 030°45'0 0.0
2018-Jun-19 05:30N 46°29' E 030°45'0 0.0
2018-Jun-19 05:01N 46°29' E 030°45'0 0.0
2018-Jun-19 04:31N 46°29' E 030°45'0 0.0
2018-Jun-19 04:00N 46°29' E 030°45'0 0.1
2018-Jun-19 03:30N 46°29' E 030°45'2 3.9
2018-Jun-19 03:00N 46°30' E 030°48'1 2.8
2018-Jun-19 02:30N 46°29' E 030°50'2 4.1
2018-Jun-19 01:59N 46°30' E 030°53'0 0.0
2018-Jun-19 01:29N 46°30' E 030°53'0 0.0
2018-Jun-19 00:59N 46°30' E 030°53'0 0.0
2018-Jun-19 00:29N 46°30' E 030°53'0 0.0
2018-Jun-18 23:56N 46°30' E 030°53'0 0.0
2018-Jun-18 23:26N 46°30' E 030°53'0 0.0
2018-Jun-18 22:59N 46°30' E 030°53'0 0.0
2018-Jun-18 22:26N 46°30' E 030°53'0 0.0
2018-Jun-18 21:50N 46°30' E 030°53'0 0.0
2018-Jun-18 21:14N 46°30' E 030°53'0 0.0
2018-Jun-18 20:53N 46°30' E 030°53'0 0.1
2018-Jun-18 20:26N 46°30' E 030°53'0 0.0
2018-Jun-18 19:59N 46°30' E 030°53'0 0.0
2018-Jun-18 19:26N 46°30' E 030°53'0 0.0
2018-Jun-18 18:56N 46°30' E 030°53'0 0.0
2018-Jun-18 18:29N 46°30' E 030°53'0 0.0
2018-Jun-18 17:47N 46°30' E 030°53'0 0.0
2018-Jun-18 17:29N 46°30' E 030°53'0 0.1
2018-Jun-18 16:59N 46°30' E 030°53'0 0.1
2018-Jun-18 16:26N 46°30' E 030°53'0 0.1
2018-Jun-18 15:59N 46°30' E 030°53'0 0.0
2018-Jun-18 15:11N 46°30' E 030°53'0 0.1
2018-Jun-18 14:59N 46°30' E 030°53'0 0.1
2018-Jun-18 14:23N 46°30' E 030°53'0 0.0
2018-Jun-18 13:53N 46°30' E 030°53'0 0.0
2018-Jun-18 13:29N 46°30' E 030°53'0 0.0
2018-Jun-18 12:59N 46°30' E 030°53'0 0.1
2018-Jun-18 12:23N 46°30' E 030°53'0 0.0
2018-Jun-18 11:59N 46°30' E 030°53'0 0.1
2018-Jun-18 11:23N 46°30' E 030°53'0 0.1
2018-Jun-18 10:59N 46°30' E 030°53'0 0.0
2018-Jun-18 10:14N 46°30' E 030°53'0 0.0
2018-Jun-18 09:59N 46°30' E 030°53'0 0.0
2018-Jun-18 09:26N 46°30' E 030°53'0 0.0
2018-Jun-18 08:44N 46°30' E 030°53'0 0.0
2018-Jun-18 08:23N 46°30' E 030°53'0 0.0
2018-Jun-18 07:59N 46°30' E 030°53'0 0.0
2018-Jun-18 07:23N 46°30' E 030°53'0 0.0
2018-Jun-18 06:59N 46°30' E 030°53'0 0.0
2018-Jun-18 06:17N 46°30' E 030°53'0 0.1
2018-Jun-18 05:59N 46°30' E 030°53'0 0.0
2018-Jun-18 05:26N 46°30' E 030°53'0 0.0
2018-Jun-18 04:59N 46°30' E 030°53'0 0.0
2018-Jun-18 04:26N 46°30' E 030°53'0 0.1
2018-Jun-18 03:59N 46°30' E 030°53'0 0.0
2018-Jun-18 03:29N 46°30' E 030°53'0 0.0
2018-Jun-18 02:59N 46°30' E 030°53'0 0.0
2018-Jun-18 02:29N 46°30' E 030°53'0 0.0
2018-Jun-18 01:56N 46°30' E 030°53'0 0.0
2018-Jun-18 01:29N 46°30' E 030°53'0 0.0
2018-Jun-18 00:56N 46°30' E 030°53'0 0.0
2018-Jun-18 00:29N 46°30' E 030°53'0 0.0
2018-Jun-17 23:59N 46°30' E 030°53'0 0.0
2018-Jun-17 23:26N 46°30' E 030°53'0 0.0
2018-Jun-17 22:56N 46°30' E 030°53'0 0.0
2018-Jun-17 22:29N 46°30' E 030°53'0 0.0
2018-Jun-17 22:00N 46°30' E 030°53'4 7.9
2018-Jun-17 21:30N 46°26' E 030°53'712.0
2018-Jun-17 20:57N 46°19' E 030°54'814.9
2018-Jun-17 20:25N 46°13' E 031°02'  
2018-Jun-14 18:02N 37°35' E 023°60'116.3
2018-Jun-14 18:00N 37°35' E 023°59'815.9
2018-Jun-14 17:31N 37°36' E 023°49'815.6
2018-Jun-14 17:01N 37°41' E 023°42'815.0
2018-Jun-14 16:31N 37°48' E 023°38'713.4
2018-Jun-14 16:00N 37°55' E 023°36'3 5.4
2018-Jun-14 15:30N 37°57' E 023°35'0 0.0
2018-Jun-14 15:00N 37°57' E 023°35'0 0.0
2018-Jun-14 14:30N 37°57' E 023°35'0 0.0
2018-Jun-14 14:00N 37°57' E 023°35'0 0.0
2018-Jun-14 13:30N 37°57' E 023°35'0 0.0
2018-Jun-14 13:00N 37°57' E 023°35'0 0.0
2018-Jun-14 12:30N 37°57' E 023°35'0 0.0
2018-Jun-14 12:00N 37°57' E 023°35'0 0.0
2018-Jun-14 11:30N 37°57' E 023°35'0 0.0
2018-Jun-14 11:00N 37°57' E 023°35'0 0.0
2018-Jun-14 10:30N 37°57' E 023°35'0 0.0
2018-Jun-14 10:00N 37°57' E 023°35'0 0.0
2018-Jun-14 09:30N 37°57' E 023°35'0 0.0
2018-Jun-14 09:00N 37°57' E 023°35'0 0.1
2018-Jun-14 08:30N 37°57' E 023°35'2 4.7
2018-Jun-14 08:00N 37°55' E 023°34'1 2.3
2018-Jun-14 07:26N 37°54' E 023°34'0 0.1
2018-Jun-14 06:56N 37°54' E 023°34'0 0.0
2018-Jun-14 06:26N 37°54' E 023°34'0 0.0
2018-Jun-14 05:59N 37°54' E 023°34'0 0.0
2018-Jun-14 05:26N 37°54' E 023°34'0 0.0
2018-Jun-14 04:44N 37°54' E 023°34'0 0.0
2018-Jun-14 04:26N 37°54' E 023°34'0 0.0
2018-Jun-14 03:59N 37°54' E 023°34'0 0.1
2018-Jun-14 03:26N 37°54' E 023°34'0 0.2
2018-Jun-14 02:59N 37°54' E 023°34'0 0.0
2018-Jun-14 02:29N 37°54' E 023°34'0 0.4
2018-Jun-14 01:59N 37°54' E 023°33'0 0.0
2018-Jun-14 01:26N 37°54' E 023°33'0 0.0
2018-Jun-14 00:53N 37°54' E 023°33'0 0.1
2018-Jun-14 00:20N 37°54' E 023°33'0 0.1
2018-Jun-13 23:59N 37°54' E 023°33'0 0.0
2018-Jun-13 23:26N 37°54' E 023°33'0 0.0
2018-Jun-13 22:56N 37°54' E 023°33'0 0.1
2018-Jun-13 22:26N 37°54' E 023°33'0 0.0
2018-Jun-13 21:56N 37°54' E 023°33'0 0.0
2018-Jun-13 21:29N 37°54' E 023°33'0 0.0
2018-Jun-13 20:59N 37°54' E 023°33'0 0.0
2018-Jun-13 20:26N 37°54' E 023°33'0 0.0
2018-Jun-13 19:59N 37°54' E 023°33'0 0.0
2018-Jun-13 19:29N 37°54' E 023°33'0 0.0
2018-Jun-13 18:56N 37°54' E 023°33'0 0.0
2018-Jun-13 18:29N 37°54' E 023°33'0 0.0
2018-Jun-13 17:59N 37°54' E 023°33'0 0.1
2018-Jun-13 17:29N 37°54' E 023°33'0 0.1
2018-Jun-13 16:59N 37°54' E 023°33'0 0.0
2018-Jun-13 16:26N 37°54' E 023°33'0 0.1
2018-Jun-13 15:59N 37°54' E 023°33'0 0.1
2018-Jun-13 15:26N 37°54' E 023°33'0 0.0
2018-Jun-13 14:56N 37°54' E 023°33'0 0.0
2018-Jun-13 14:29N 37°54' E 023°33'0 0.0
2018-Jun-13 13:59N 37°54' E 023°33'0 0.0
2018-Jun-13 13:29N 37°54' E 023°33'0 0.0
2018-Jun-13 12:59N 37°54' E 023°33'0 0.0
2018-Jun-13 12:29N 37°54' E 023°33'0 0.0
2018-Jun-13 11:59N 37°54' E 023°33'0 0.0
2018-Jun-13 11:29N 37°54' E 023°33'0 0.0
2018-Jun-13 10:59N 37°54' E 023°33'0 0.0
2018-Jun-13 10:29N 37°54' E 023°33'0 0.0
2018-Jun-13 09:59N 37°54' E 023°33'0 0.1
2018-Jun-13 09:29N 37°54' E 023°33'0 0.0
2018-Jun-13 08:59N 37°54' E 023°33'0 0.1
2018-Jun-13 08:29N 37°54' E 023°33'0 0.0
2018-Jun-13 07:59N 37°54' E 023°33'0 0.0
2018-Jun-13 07:29N 37°54' E 023°33'0 0.0
2018-Jun-13 06:59N 37°54' E 023°33'0 0.0
2018-Jun-13 06:19N 37°54' E 023°33'0 0.0
2018-Jun-13 05:39N 37°54' E 023°33'0 0.1
2018-Jun-13 05:29N 37°54' E 023°33'0 0.0
2018-Jun-13 04:59N 37°54' E 023°33'0 0.0
2018-Jun-13 04:29N 37°54' E 023°33'0 0.0
2018-Jun-13 03:59N 37°54' E 023°33'0 0.0
2018-Jun-13 03:29N 37°54' E 023°33'0 0.0
2018-Jun-13 02:59N 37°54' E 023°33'0 0.0
2018-Jun-13 02:29N 37°54' E 023°33'0 0.0
2018-Jun-13 01:59N 37°54' E 023°33'0 0.1
2018-Jun-13 01:29N 37°54' E 023°33'0 0.1
2018-Jun-13 00:59N 37°54' E 023°33'0 0.0
2018-Jun-13 00:29N 37°54' E 023°33'0 0.0
2018-Jun-12 23:59N 37°54' E 023°33'0 0.0
2018-Jun-12 23:29N 37°54' E 023°33'0 0.1
2018-Jun-12 22:59N 37°54' E 023°33'0 0.2
2018-Jun-12 22:29N 37°54' E 023°33'0 0.1
2018-Jun-12 21:59N 37°54' E 023°33'0 0.1
2018-Jun-12 21:29N 37°54' E 023°33'0 0.1
2018-Jun-12 20:59N 37°54' E 023°34'0 0.0
2018-Jun-12 20:29N 37°54' E 023°34'0 0.0
2018-Jun-12 19:59N 37°54' E 023°34'0 0.0
2018-Jun-12 19:29N 37°54' E 023°34'0 0.0
2018-Jun-12 18:59N 37°54' E 023°34'0 0.1
2018-Jun-12 18:29N 37°54' E 023°33'0 0.0
2018-Jun-12 17:59N 37°54' E 023°33'0 0.0
2018-Jun-12 17:29N 37°54' E 023°33'0 0.0
2018-Jun-12 16:59N 37°54' E 023°33'0 0.1
2018-Jun-12 16:29N 37°54' E 023°33'0 0.0
2018-Jun-12 15:59N 37°54' E 023°33'0 0.1
2018-Jun-12 15:29N 37°54' E 023°33'0 0.0
2018-Jun-12 14:59N 37°54' E 023°33'0 0.0
2018-Jun-12 14:29N 37°54' E 023°33'0 0.0
2018-Jun-12 13:59N 37°54' E 023°33'0 0.1
2018-Jun-12 13:29N 37°54' E 023°33'0 0.0
2018-Jun-12 12:59N 37°54' E 023°33'0 0.0
2018-Jun-12 12:29N 37°54' E 023°33'0 0.0
2018-Jun-12 11:59N 37°54' E 023°33'0 0.1
2018-Jun-12 11:29N 37°54' E 023°34'0 0.0
2018-Jun-12 10:56N 37°54' E 023°33'0 0.1
2018-Jun-12 10:29N 37°54' E 023°33'0 0.3
2018-Jun-12 09:59N 37°54' E 023°33'0 0.2
2018-Jun-12 09:29N 37°54' E 023°33'0 0.0
2018-Jun-12 08:59N 37°54' E 023°33'0 0.0
2018-Jun-12 08:29N 37°54' E 023°33'0 0.0
2018-Jun-12 07:59N 37°54' E 023°33'0 0.0
2018-Jun-12 07:29N 37°54' E 023°33'0 0.0
2018-Jun-12 06:59N 37°54' E 023°33'0 0.0
2018-Jun-12 06:29N 37°54' E 023°33'0 0.0
2018-Jun-12 05:59N 37°54' E 023°33'0 0.0
2018-Jun-12 05:29N 37°54' E 023°33'0 0.0
2018-Jun-12 04:59N 37°54' E 023°33'0 0.0
2018-Jun-12 04:29N 37°54' E 023°33'0 0.0
2018-Jun-12 03:59N 37°54' E 023°33'0 0.0
2018-Jun-12 03:29N 37°54' E 023°33'0 0.0
2018-Jun-12 02:59N 37°54' E 023°33'0 0.0
2018-Jun-12 02:29N 37°54' E 023°33'0 0.0
2018-Jun-12 01:59N 37°54' E 023°33'0 0.0
2018-Jun-12 01:29N 37°54' E 023°33'0 0.0
2018-Jun-12 00:59N 37°54' E 023°33'0 0.0
2018-Jun-12 00:29N 37°54' E 023°34'0 0.0
2018-Jun-11 23:59N 37°54' E 023°34'0 0.1
2018-Jun-11 23:29N 37°54' E 023°34'0 0.1
2018-Jun-11 22:59N 37°54' E 023°34'0 0.0
2018-Jun-11 22:29N 37°54' E 023°34'0 0.0
2018-Jun-11 21:59N 37°54' E 023°34'0 0.0
2018-Jun-11 21:29N 37°54' E 023°34'0 0.0
2018-Jun-11 20:59N 37°54' E 023°34'0 0.1
2018-Jun-11 20:29N 37°54' E 023°33'0 0.1
2018-Jun-11 19:59N 37°54' E 023°33'0 0.0
2018-Jun-11 19:29N 37°54' E 023°33'  
Track history (hours):
 
Tides and Currents Weather Stations Pressure Air Temp Water Temp Dewpoint Dewpoint Depression Visibility Wind Speed Wind Dir Waves Ship Positions

Uni-assent

Last reported at 2018-Jun-21 19:15 UTC. Time now 2018-Jun-22 07:44 UTC.
Position N 43°09' E 027°58'.

Length 165 m; draft 7.3 m.

Type: Ship (hazmat cat D). MMSI: 357157000.

Date/timePositionNaut miles runAvg speedWind from/ knotsBaromVisibWave heightAir tempDewpointWater temp
2018-Jun-21 19:15N 43°09' E 027°58'0 0.0
2018-Jun-21 19:00N 43°09' E 027°58'0 0.0
2018-Jun-20 20:42N 43°09' E 027°58'0 0.0
2018-Jun-20 20:30N 43°09' E 027°58'0 0.0
2018-Jun-20 20:00N 43°09' E 027°58'0 0.0
2018-Jun-20 19:27N 43°09' E 027°58'0 0.0
2018-Jun-20 19:00N 43°09' E 027°58'0 0.0
2018-Jun-20 18:30N 43°09' E 027°58'0 0.0
2018-Jun-20 18:00N 43°09' E 027°58'0 0.0
2018-Jun-20 17:30N 43°09' E 027°58'28 5.0
2018-Jun-20 11:52N 43°23' E 028°31'616.9
2018-Jun-20 11:30N 43°28' E 028°36'816.6
2018-Jun-20 11:00N 43°35' E 028°43'816.1
2018-Jun-20 10:30N 43°42' E 028°48'815.5
2018-Jun-20 10:01N 43°49' E 028°52'815.3
2018-Jun-20 09:30N 43°57' E 028°51'714.7
2018-Jun-20 09:01N 44°02' E 028°45'510.0
2018-Jun-20 08:31N 44°06' E 028°41'1 1.4
2018-Jun-20 08:00N 44°06' E 028°40'0 0.0
2018-Jun-20 07:30N 44°06' E 028°40'0 0.0
2018-Jun-20 07:00N 44°06' E 028°40'0 0.0
2018-Jun-20 06:30N 44°06' E 028°40'0 0.0
2018-Jun-20 06:00N 44°06' E 028°40'0 0.0
2018-Jun-20 05:30N 44°06' E 028°40'0 0.0
2018-Jun-20 05:00N 44°06' E 028°40'0 0.0
2018-Jun-20 04:30N 44°06' E 028°40'0 0.0
2018-Jun-20 04:00N 44°06' E 028°40'0 0.0
2018-Jun-20 03:30N 44°06' E 028°40'0 0.0
2018-Jun-20 03:00N 44°06' E 028°40'0 0.0
2018-Jun-20 02:30N 44°06' E 028°40'0 0.0
2018-Jun-20 02:00N 44°06' E 028°40'0 0.0
2018-Jun-20 01:30N 44°06' E 028°40'0 0.0
2018-Jun-20 01:00N 44°06' E 028°40'0 0.0
2018-Jun-20 00:30N 44°06' E 028°40'0 0.0
2018-Jun-20 00:00N 44°06' E 028°40'0 0.0
2018-Jun-19 23:30N 44°06' E 028°40'0 0.4
2018-Jun-19 23:01N 44°06' E 028°39'2 3.7
2018-Jun-19 22:31N 44°06' E 028°42'4 8.6
2018-Jun-19 22:01N 44°03' E 028°46'611.2
2018-Jun-19 21:31N 43°60' E 028°52'713.1
2018-Jun-19 21:01N 44°03' E 029°01'815.9
2018-Jun-19 20:30N 44°08' E 029°09'815.9
2018-Jun-19 20:00N 44°12' E 029°18'815.6
2018-Jun-19 19:30N 44°17' E 029°27'815.9
2018-Jun-19 19:00N 44°22' E 029°35'815.8
2018-Jun-19 18:30N 44°27' E 029°44'815.5
2018-Jun-19 18:00N 44°32' E 029°52'815.6
2018-Jun-19 17:30N 44°37' E 030°01'815.5
2018-Jun-19 17:00N 44°42' E 030°09'815.5
2018-Jun-19 16:30N 44°47' E 030°18'815.5
2018-Jun-19 16:00N 44°52' E 030°26'815.5
2018-Jun-19 15:30N 44°57' E 030°35'815.4
2018-Jun-19 15:00N 45°04' E 030°39'815.6
2018-Jun-19 14:30N 45°11' E 030°43'815.3
2018-Jun-19 14:00N 45°18' E 030°46'815.3
2018-Jun-19 13:30N 45°26' E 030°49'815.3
2018-Jun-19 13:00N 45°33' E 030°52'715.1
2018-Jun-19 12:30N 45°40' E 030°55'815.1
2018-Jun-19 11:59N 45°48' E 030°59'815.2
2018-Jun-19 11:30N 45°55' E 031°02'715.2
2018-Jun-19 11:00N 46°02' E 031°04'714.5
2018-Jun-19 10:30N 46°09' E 031°01'815.2
2018-Jun-19 10:00N 46°15' E 030°54'714.8
2018-Jun-19 09:30N 46°22' E 030°51'714.0
2018-Jun-19 09:00N 46°29' E 030°48'2 3.0
2018-Jun-19 08:24N 46°29' E 030°45'0 0.0
2018-Jun-19 08:00N 46°29' E 030°45'0 0.0
2018-Jun-19 07:31N 46°29' E 030°45'0 0.0
2018-Jun-19 06:52N 46°29' E 030°45'0 0.0
2018-Jun-19 06:31N 46°29' E 030°45'0 0.0
2018-Jun-19 06:01N 46°29' E 030°45'0 0.0
2018-Jun-19 05:30N 46°29' E 030°45'0 0.0
2018-Jun-19 05:01N 46°29' E 030°45'0 0.0
2018-Jun-19 04:31N 46°29' E 030°45'0 0.0
2018-Jun-19 04:00N 46°29' E 030°45'0 0.1
2018-Jun-19 03:30N 46°29' E 030°45'2 3.9
2018-Jun-19 03:00N 46°30' E 030°48'1 2.8
2018-Jun-19 02:30N 46°29' E 030°50'2 4.1
2018-Jun-19 01:59N 46°30' E 030°53'0 0.0
2018-Jun-19 01:29N 46°30' E 030°53'0 0.0
2018-Jun-19 00:59N 46°30' E 030°53'0 0.0
2018-Jun-19 00:29N 46°30' E 030°53'0 0.0
2018-Jun-18 23:56N 46°30' E 030°53'0 0.0
2018-Jun-18 23:26N 46°30' E 030°53'0 0.0
2018-Jun-18 22:59N 46°30' E 030°53'0 0.0
2018-Jun-18 22:26N 46°30' E 030°53'0 0.0
2018-Jun-18 21:50N 46°30' E 030°53'0 0.0
2018-Jun-18 21:14N 46°30' E 030°53'0 0.0
2018-Jun-18 20:53N 46°30' E 030°53'0 0.1
2018-Jun-18 20:26N 46°30' E 030°53'0 0.0
2018-Jun-18 19:59N 46°30' E 030°53'0 0.0
2018-Jun-18 19:26N 46°30' E 030°53'0 0.0
2018-Jun-18 18:56N 46°30' E 030°53'0 0.0
2018-Jun-18 18:29N 46°30' E 030°53'0 0.0
2018-Jun-18 17:47N 46°30' E 030°53'0 0.0
2018-Jun-18 17:29N 46°30' E 030°53'0 0.1
2018-Jun-18 16:59N 46°30' E 030°53'0 0.1
2018-Jun-18 16:26N 46°30' E 030°53'0 0.1
2018-Jun-18 15:59N 46°30' E 030°53'0 0.0
2018-Jun-18 15:11N 46°30' E 030°53'0 0.1
2018-Jun-18 14:59N 46°30' E 030°53'0 0.1
2018-Jun-18 14:23N 46°30' E 030°53'0 0.0
2018-Jun-18 13:53N 46°30' E 030°53'0 0.0
2018-Jun-18 13:29N 46°30' E 030°53'0 0.0
2018-Jun-18 12:59N 46°30' E 030°53'0 0.1
2018-Jun-18 12:23N 46°30' E 030°53'0 0.0
2018-Jun-18 11:59N 46°30' E 030°53'0 0.1
2018-Jun-18 11:23N 46°30' E 030°53'0 0.1
2018-Jun-18 10:59N 46°30' E 030°53'0 0.0
2018-Jun-18 10:14N 46°30' E 030°53'0 0.0
2018-Jun-18 09:59N 46°30' E 030°53'0 0.0
2018-Jun-18 09:26N 46°30' E 030°53'0 0.0
2018-Jun-18 08:44N 46°30' E 030°53'0 0.0
2018-Jun-18 08:23N 46°30' E 030°53'0 0.0
2018-Jun-18 07:59N 46°30' E 030°53'0 0.0
2018-Jun-18 07:23N 46°30' E 030°53'0 0.0
2018-Jun-18 06:59N 46°30' E 030°53'0 0.0
2018-Jun-18 06:17N 46°30' E 030°53'0 0.1
2018-Jun-18 05:59N 46°30' E 030°53'0 0.0
2018-Jun-18 05:26N 46°30' E 030°53'0 0.0
2018-Jun-18 04:59N 46°30' E 030°53'0 0.0
2018-Jun-18 04:26N 46°30' E 030°53'0 0.1
2018-Jun-18 03:59N 46°30' E 030°53'0 0.0
2018-Jun-18 03:29N 46°30' E 030°53'0 0.0
2018-Jun-18 02:59N 46°30' E 030°53'0 0.0
2018-Jun-18 02:29N 46°30' E 030°53'0 0.0
2018-Jun-18 01:56N 46°30' E 030°53'0 0.0
2018-Jun-18 01:29N 46°30' E 030°53'0 0.0
2018-Jun-18 00:56N 46°30' E 030°53'0 0.0
2018-Jun-18 00:29N 46°30' E 030°53'0 0.0
2018-Jun-17 23:59N 46°30' E 030°53'0 0.0
2018-Jun-17 23:26N 46°30' E 030°53'0 0.0
2018-Jun-17 22:56N 46°30' E 030°53'0 0.0
2018-Jun-17 22:29N 46°30' E 030°53'0 0.0
2018-Jun-17 22:00N 46°30' E 030°53'4 7.9
2018-Jun-17 21:30N 46°26' E 030°53'712.0
2018-Jun-17 20:57N 46°19' E 030°54'814.9
2018-Jun-17 20:25N 46°13' E 031°02'  
2018-Jun-14 18:02N 37°35' E 023°60'116.3
2018-Jun-14 18:00N 37°35' E 023°59'815.9
2018-Jun-14 17:31N 37°36' E 023°49'815.6
2018-Jun-14 17:01N 37°41' E 023°42'815.0
2018-Jun-14 16:31N 37°48' E 023°38'713.4
2018-Jun-14 16:00N 37°55' E 023°36'3 5.4
2018-Jun-14 15:30N 37°57' E 023°35'0 0.0
2018-Jun-14 15:00N 37°57' E 023°35'0 0.0
2018-Jun-14 14:30N 37°57' E 023°35'0 0.0
2018-Jun-14 14:00N 37°57' E 023°35'0 0.0
2018-Jun-14 13:30N 37°57' E 023°35'0 0.0
2018-Jun-14 13:00N 37°57' E 023°35'0 0.0
2018-Jun-14 12:30N 37°57' E 023°35'0 0.0
2018-Jun-14 12:00N 37°57' E 023°35'0 0.0
2018-Jun-14 11:30N 37°57' E 023°35'0 0.0
2018-Jun-14 11:00N 37°57' E 023°35'0 0.0
2018-Jun-14 10:30N 37°57' E 023°35'0 0.0
2018-Jun-14 10:00N 37°57' E 023°35'0 0.0
2018-Jun-14 09:30N 37°57' E 023°35'0 0.0
2018-Jun-14 09:00N 37°57' E 023°35'0 0.1
2018-Jun-14 08:30N 37°57' E 023°35'2 4.7
2018-Jun-14 08:00N 37°55' E 023°34'1 2.3
2018-Jun-14 07:26N 37°54' E 023°34'0 0.1
2018-Jun-14 06:56N 37°54' E 023°34'0 0.0
2018-Jun-14 06:26N 37°54' E 023°34'0 0.0
2018-Jun-14 05:59N 37°54' E 023°34'0 0.0
2018-Jun-14 05:26N 37°54' E 023°34'0 0.0
2018-Jun-14 04:44N 37°54' E 023°34'0 0.0
2018-Jun-14 04:26N 37°54' E 023°34'0 0.0
2018-Jun-14 03:59N 37°54' E 023°34'0 0.1
2018-Jun-14 03:26N 37°54' E 023°34'0 0.2
2018-Jun-14 02:59N 37°54' E 023°34'0 0.0
2018-Jun-14 02:29N 37°54' E 023°34'0 0.4
2018-Jun-14 01:59N 37°54' E 023°33'0 0.0
2018-Jun-14 01:26N 37°54' E 023°33'0 0.0
2018-Jun-14 00:53N 37°54' E 023°33'0 0.1
2018-Jun-14 00:20N 37°54' E 023°33'0 0.1
2018-Jun-13 23:59N 37°54' E 023°33'0 0.0
2018-Jun-13 23:26N 37°54' E 023°33'0 0.0
2018-Jun-13 22:56N 37°54' E 023°33'0 0.1
2018-Jun-13 22:26N 37°54' E 023°33'0 0.0
2018-Jun-13 21:56N 37°54' E 023°33'0 0.0
2018-Jun-13 21:29N 37°54' E 023°33'0 0.0
2018-Jun-13 20:59N 37°54' E 023°33'0 0.0
2018-Jun-13 20:26N 37°54' E 023°33'0 0.0
2018-Jun-13 19:59N 37°54' E 023°33'0 0.0
2018-Jun-13 19:29N 37°54' E 023°33'0 0.0
2018-Jun-13 18:56N 37°54' E 023°33'0 0.0
2018-Jun-13 18:29N 37°54' E 023°33'0 0.0
2018-Jun-13 17:59N 37°54' E 023°33'0 0.1
2018-Jun-13 17:29N 37°54' E 023°33'0 0.1
2018-Jun-13 16:59N 37°54' E 023°33'0 0.0
2018-Jun-13 16:26N 37°54' E 023°33'0 0.1
2018-Jun-13 15:59N 37°54' E 023°33'0 0.1
2018-Jun-13 15:26N 37°54' E 023°33'0 0.0
2018-Jun-13 14:56N 37°54' E 023°33'0 0.0
2018-Jun-13 14:29N 37°54' E 023°33'0 0.0
2018-Jun-13 13:59N 37°54' E 023°33'0 0.0
2018-Jun-13 13:29N 37°54' E 023°33'0 0.0
2018-Jun-13 12:59N 37°54' E 023°33'0 0.0
2018-Jun-13 12:29N 37°54' E 023°33'0 0.0
2018-Jun-13 11:59N 37°54' E 023°33'0 0.0
2018-Jun-13 11:29N 37°54' E 023°33'0 0.0
2018-Jun-13 10:59N 37°54' E 023°33'0 0.0
2018-Jun-13 10:29N 37°54' E 023°33'0 0.0
2018-Jun-13 09:59N 37°54' E 023°33'0 0.1
2018-Jun-13 09:29N 37°54' E 023°33'0 0.0
2018-Jun-13 08:59N 37°54' E 023°33'0 0.1
2018-Jun-13 08:29N 37°54' E 023°33'0 0.0
2018-Jun-13 07:59N 37°54' E 023°33'0 0.0
2018-Jun-13 07:29N 37°54' E 023°33'0 0.0
2018-Jun-13 06:59N 37°54' E 023°33'0 0.0
2018-Jun-13 06:19N 37°54' E 023°33'0 0.0
2018-Jun-13 05:39N 37°54' E 023°33'0 0.1
2018-Jun-13 05:29N 37°54' E 023°33'0 0.0
2018-Jun-13 04:59N 37°54' E 023°33'0 0.0
2018-Jun-13 04:29N 37°54' E 023°33'0 0.0
2018-Jun-13 03:59N 37°54' E 023°33'0 0.0
2018-Jun-13 03:29N 37°54' E 023°33'0 0.0
2018-Jun-13 02:59N 37°54' E 023°33'0 0.0
2018-Jun-13 02:29N 37°54' E 023°33'0 0.0
2018-Jun-13 01:59N 37°54' E 023°33'0 0.1
2018-Jun-13 01:29N 37°54' E 023°33'0 0.1
2018-Jun-13 00:59N 37°54' E 023°33'0 0.0
2018-Jun-13 00:29N 37°54' E 023°33'0 0.0
2018-Jun-12 23:59N 37°54' E 023°33'0 0.0
2018-Jun-12 23:29N 37°54' E 023°33'0 0.1
2018-Jun-12 22:59N 37°54' E 023°33'0 0.2
2018-Jun-12 22:29N 37°54' E 023°33'0 0.1
2018-Jun-12 21:59N 37°54' E 023°33'0 0.1
2018-Jun-12 21:29N 37°54' E 023°33'0 0.1
2018-Jun-12 20:59N 37°54' E 023°34'0 0.0
2018-Jun-12 20:29N 37°54' E 023°34'0 0.0
2018-Jun-12 19:59N 37°54' E 023°34'0 0.0
2018-Jun-12 19:29N 37°54' E 023°34'0 0.0
2018-Jun-12 18:59N 37°54' E 023°34'0 0.1
2018-Jun-12 18:29N 37°54' E 023°33'0 0.0
2018-Jun-12 17:59N 37°54' E 023°33'0 0.0
2018-Jun-12 17:29N 37°54' E 023°33'0 0.0
2018-Jun-12 16:59N 37°54' E 023°33'0 0.1
2018-Jun-12 16:29N 37°54' E 023°33'0 0.0
2018-Jun-12 15:59N 37°54' E 023°33'0 0.1
2018-Jun-12 15:29N 37°54' E 023°33'0 0.0
2018-Jun-12 14:59N 37°54' E 023°33'0 0.0
2018-Jun-12 14:29N 37°54' E 023°33'0 0.0
2018-Jun-12 13:59N 37°54' E 023°33'0 0.1
2018-Jun-12 13:29N 37°54' E 023°33'0 0.0
2018-Jun-12 12:59N 37°54' E 023°33'0 0.0
2018-Jun-12 12:29N 37°54' E 023°33'0 0.0
2018-Jun-12 11:59N 37°54' E 023°33'0 0.1
2018-Jun-12 11:29N 37°54' E 023°34'0 0.0
2018-Jun-12 10:56N 37°54' E 023°33'0 0.1
2018-Jun-12 10:29N 37°54' E 023°33'0 0.3
2018-Jun-12 09:59N 37°54' E 023°33'0 0.2
2018-Jun-12 09:29N 37°54' E 023°33'0 0.0
2018-Jun-12 08:59N 37°54' E 023°33'0 0.0
2018-Jun-12 08:29N 37°54' E 023°33'0 0.0
2018-Jun-12 07:59N 37°54' E 023°33'0 0.0
2018-Jun-12 07:29N 37°54' E 023°33'0 0.0
2018-Jun-12 06:59N 37°54' E 023°33'0 0.0
2018-Jun-12 06:29N 37°54' E 023°33'0 0.0
2018-Jun-12 05:59N 37°54' E 023°33'0 0.0
2018-Jun-12 05:29N 37°54' E 023°33'0 0.0
2018-Jun-12 04:59N 37°54' E 023°33'0 0.0
2018-Jun-12 04:29N 37°54' E 023°33'0 0.0
2018-Jun-12 03:59N 37°54' E 023°33'0 0.0
2018-Jun-12 03:29N 37°54' E 023°33'0 0.0
2018-Jun-12 02:59N 37°54' E 023°33'0 0.0
2018-Jun-12 02:29N 37°54' E 023°33'0 0.0
2018-Jun-12 01:59N 37°54' E 023°33'0 0.0
2018-Jun-12 01:29N 37°54' E 023°33'0 0.0
2018-Jun-12 00:59N 37°54' E 023°33'0 0.0
2018-Jun-12 00:29N 37°54' E 023°34'0 0.0
2018-Jun-11 23:59N 37°54' E 023°34'0 0.1
2018-Jun-11 23:29N 37°54' E 023°34'0 0.1
2018-Jun-11 22:59N 37°54' E 023°34'0 0.0
2018-Jun-11 22:29N 37°54' E 023°34'0 0.0
2018-Jun-11 21:59N 37°54' E 023°34'0 0.0
2018-Jun-11 21:29N 37°54' E 023°34'0 0.0
2018-Jun-11 20:59N 37°54' E 023°34'0 0.1
2018-Jun-11 20:29N 37°54' E 023°33'0 0.1
2018-Jun-11 19:59N 37°54' E 023°33'0 0.0
2018-Jun-11 19:29N 37°54' E 023°33'  

Dump ship's entire track history